Stolt Sneland — ZCTY8 — position and weather

sailwx.info

Track history (hours):
 
Tides and Currents Weather Stations Pressure Air Temp Water Temp Dewpoint Dewpoint Depression Visibility Wind Speed Wind Dir Waves Ship Positions

Stolt Sneland

Last reported at 2017-Sep-21 06:44 UTC. Time now 2017-Sep-26 18:31 UTC.
Position N 27°37' W 082°41'.

Length 182 m; draft 8.1 m.

Type: Ship (hazmat cat A). MMSI: 319627000.

Date/timePositionNaut miles runAvg speedWind from/ knotsBaromVisibWave heightAir tempDewpointWater temp
2017-Sep-21 06:44N 27°37' W 082°41'311.6
2017-Sep-21 06:29N 27°38' W 082°38'511.1
2017-Sep-21 06:00N 27°42' W 082°34'510.9
2017-Sep-21 05:30N 27°47' W 082°31'510.8
2017-Sep-21 05:00N 27°50' W 082°27'5 9.7
2017-Sep-21 04:30N 27°55' W 082°27'0 0.5
2017-Sep-21 04:00N 27°55' W 082°27'0 0.0
2017-Sep-21 03:29N 27°55' W 082°27'0 0.0
2017-Sep-21 03:00N 27°55' W 082°27'0 0.0
2017-Sep-21 02:30N 27°55' W 082°27'0 0.0
2017-Sep-21 02:00N 27°55' W 082°27'0 0.0
2017-Sep-21 01:30N 27°55' W 082°27'0 0.0
2017-Sep-21 01:00N 27°55' W 082°27'0 0.0
2017-Sep-21 00:30N 27°55' W 082°27'0 0.0
2017-Sep-21 00:00N 27°55' W 082°27'0 0.0
2017-Sep-20 23:29N 27°55' W 082°27'0 0.0
2017-Sep-20 23:00N 27°55' W 082°27'0 0.0
2017-Sep-20 22:29N 27°55' W 082°27'0 0.0
2017-Sep-20 22:00N 27°55' W 082°27'0 0.0
2017-Sep-20 21:29N 27°55' W 082°27'0 0.0
2017-Sep-20 20:59N 27°55' W 082°27'0 0.0
2017-Sep-20 20:30N 27°55' W 082°27'0 0.0
2017-Sep-20 19:59N 27°55' W 082°27'0 0.0
2017-Sep-20 19:30N 27°55' W 082°27'0 0.0
2017-Sep-20 19:00N 27°55' W 082°27'0 0.0
2017-Sep-20 18:29N 27°55' W 082°27'0 0.0
2017-Sep-20 18:00N 27°55' W 082°27'0 0.0
2017-Sep-20 17:29N 27°55' W 082°27'0 0.0
2017-Sep-20 16:59N 27°55' W 082°27'0 0.0
2017-Sep-20 16:29N 27°55' W 082°27'0 0.0
2017-Sep-20 15:59N 27°55' W 082°27'0 0.0
2017-Sep-20 15:29N 27°55' W 082°27'0 0.0
2017-Sep-20 15:00N 27°55' W 082°27'0 0.0
2017-Sep-20 14:00N 27°55' W 082°27'0 0.0
2017-Sep-20 13:26N 27°55' W 082°27'0 0.0
2017-Sep-20 12:59N 27°55' W 082°27'0 0.0
2017-Sep-20 12:29N 27°55' W 082°27'0 0.0
2017-Sep-20 12:00N 27°55' W 082°27'0 0.0
2017-Sep-20 11:30N 27°55' W 082°27'0 0.7
2017-Sep-20 11:00N 27°55' W 082°27'3 6.1
2017-Sep-20 10:31N 27°52' W 082°27'5 9.4
2017-Sep-20 10:01N 27°48' W 082°29'5 9.6
2017-Sep-20 09:30N 27°44' W 082°32'610.0
2017-Sep-20 08:56N 27°39' W 082°36'205 5.0
2017-Sep-18 15:37N 25°33' W 079°35'112.1
2017-Sep-18 15:30N 25°34' W 079°35'612.1
2017-Sep-18 15:00N 25°40' W 079°34'612.0
2017-Sep-18 14:30N 25°46' W 079°34'612.2
2017-Sep-18 14:00N 25°52' W 079°33'612.4
2017-Sep-18 13:30N 25°58' W 079°32'612.5
2017-Sep-18 13:00N 26°05' W 079°31'612.6
2017-Sep-18 12:30N 26°11' W 079°30'612.5
2017-Sep-18 12:00N 26°17' W 079°29'34410.7
2017-Sep-17 03:45N 31°57' W 078°31'2 7.3
2017-Sep-17 03:29N 31°59' W 078°32'133 4.3
2017-Sep-15 20:16N 34°09' W 077°57'411.4
2017-Sep-15 19:52N 34°05' W 077°56'411.6
2017-Sep-15 19:30N 34°00' W 077°56'710.1
2017-Sep-15 18:51N 33°55' W 078°01'310.0
2017-Sep-15 18:30N 33°51' W 078°01'710.9
2017-Sep-15 17:53N 33°45' W 078°04'267 9.2
2017-Sep-14 12:55N 37°07' W 074°29'813.3
2017-Sep-14 12:18N 37°15' W 074°29'813.7
2017-Sep-14 11:41N 37°24' W 074°29'614.3
2017-Sep-14 11:17N 37°29' W 074°29'714.0
2017-Sep-14 10:48N 37°36' W 074°29'413.8
2017-Sep-14 10:31N 37°40' W 074°29'714.0
2017-Sep-14 10:00N 37°47' W 074°29'713.9
2017-Sep-14 09:30N 37°54' W 074°29'713.7
2017-Sep-14 09:00N 38°01' W 074°29'713.3
2017-Sep-14 08:30N 38°07' W 074°32'713.4
2017-Sep-14 08:00N 38°13' W 074°35'713.6
2017-Sep-14 07:30N 38°19' W 074°39'713.3
2017-Sep-14 07:00N 38°25' W 074°43'713.1
2017-Sep-14 06:30N 38°31' W 074°47'612.9
2017-Sep-14 06:00N 38°36' W 074°52'612.6
2017-Sep-14 05:30N 38°41' W 074°57'612.4
2017-Sep-14 05:01N 38°46' W 075°02'510.8
2017-Sep-14 04:31N 38°51' W 075°05'5 9.1
2017-Sep-14 04:01N 38°55' W 075°06'611.4
2017-Sep-14 03:30N 39°01' W 075°09'612.0
2017-Sep-14 03:00N 39°06' W 075°12'612.9
2017-Sep-14 02:30N 39°11' W 075°17'713.8
2017-Sep-14 02:01N 39°17' W 075°22'714.2
2017-Sep-14 01:31N 39°22' W 075°28'713.4
2017-Sep-14 01:01N 39°27' W 075°34'612.8
2017-Sep-14 00:30N 39°34' W 075°33'510.6
2017-Sep-14 00:00N 39°39' W 075°33'611.7
2017-Sep-13 23:30N 39°44' W 075°30'5 9.8
2017-Sep-13 23:01N 39°48' W 075°26'4 8.8
2017-Sep-13 22:31N 39°51' W 075°21'5 9.6
2017-Sep-13 22:01N 39°51' W 075°15'2 3.0
2017-Sep-13 21:29N 39°52' W 075°13'0 0.0
2017-Sep-13 20:59N 39°52' W 075°13'0 0.0
2017-Sep-13 20:29N 39°52' W 075°13'0 0.0
2017-Sep-13 19:59N 39°52' W 075°13'0 0.0
2017-Sep-13 19:29N 39°52' W 075°13'0 0.3
2017-Sep-13 18:59N 39°52' W 075°13'0 0.1
2017-Sep-13 18:29N 39°52' W 075°13'0 0.0
2017-Sep-13 17:59N 39°52' W 075°13'0 0.0
2017-Sep-13 17:29N 39°52' W 075°13'0 0.0
2017-Sep-13 16:59N 39°52' W 075°13'0 0.0
2017-Sep-13 16:29N 39°52' W 075°13'0 0.0
2017-Sep-13 15:59N 39°52' W 075°13'0 0.0
2017-Sep-13 15:29N 39°52' W 075°13'0 0.0
2017-Sep-13 14:59N 39°52' W 075°13'0 0.1
2017-Sep-13 14:29N 39°52' W 075°13'1 1.1
2017-Sep-13 14:00N 39°52' W 075°13'3 5.8
2017-Sep-13 13:30N 39°53' W 075°09'3 6.5
2017-Sep-13 13:01N 39°56' W 075°08'3 6.5
2017-Sep-13 12:31N 39°59' W 075°06'0 0.2
2017-Sep-13 11:56N 39°59' W 075°06'0 0.0
2017-Sep-13 11:26N 39°59' W 075°06'0 0.0
2017-Sep-13 10:59N 39°59' W 075°06'0 0.0
2017-Sep-13 10:29N 39°59' W 075°06'0 0.0
2017-Sep-13 09:59N 39°59' W 075°06'0 0.0
2017-Sep-13 09:29N 39°59' W 075°06'0 0.0
2017-Sep-13 08:56N 39°59' W 075°06'0 0.0
2017-Sep-13 08:26N 39°59' W 075°06'0 0.0
2017-Sep-13 07:59N 39°59' W 075°06'0 0.0
2017-Sep-13 07:26N 39°59' W 075°06'0 0.0
2017-Sep-13 06:59N 39°59' W 075°06'0 0.0
2017-Sep-13 06:28N 39°59' W 075°06'0 0.0
2017-Sep-13 05:56N 39°59' W 075°06'0 0.0
2017-Sep-13 05:26N 39°59' W 075°06'0 0.0
2017-Sep-13 04:56N 39°59' W 075°06'0 0.0
2017-Sep-13 04:29N 39°59' W 075°06'0 0.0
2017-Sep-13 03:59N 39°59' W 075°06'0 0.0
2017-Sep-13 03:26N 39°59' W 075°06'0 0.0
2017-Sep-13 02:59N 39°59' W 075°06'0 0.0
2017-Sep-13 02:29N 39°59' W 075°06'0 0.0
2017-Sep-13 01:59N 39°59' W 075°06'0 0.0
2017-Sep-13 01:29N 39°59' W 075°06'0 0.0
2017-Sep-13 00:59N 39°59' W 075°06'0 0.0
2017-Sep-13 00:29N 39°59' W 075°06'0 0.0
2017-Sep-12 23:56N 39°59' W 075°06'0 0.0
2017-Sep-12 23:29N 39°59' W 075°06'0 0.0
2017-Sep-12 22:59N 39°59' W 075°06'0 0.0
2017-Sep-12 22:29N 39°59' W 075°06'0 0.0
2017-Sep-12 21:56N 39°59' W 075°06'0 0.0
2017-Sep-12 21:29N 39°59' W 075°06'0 0.0
2017-Sep-12 20:59N 39°59' W 075°06'0 0.0
2017-Sep-12 20:26N 39°59' W 075°06'0 0.0
2017-Sep-12 19:59N 39°59' W 075°06'0 0.0
2017-Sep-12 19:29N 39°59' W 075°06'0 0.0
2017-Sep-12 18:59N 39°59' W 075°06'0 0.3
2017-Sep-12 18:30N 39°59' W 075°05'2 4.6
2017-Sep-12 18:00N 39°57' W 075°08'3 6.4
2017-Sep-12 17:31N 39°54' W 075°08'4 7.4
2017-Sep-12 17:01N 39°53' W 075°12'5 9.0
2017-Sep-12 16:31N 39°51' W 075°18'5 9.9
2017-Sep-12 16:01N 39°49' W 075°24'5 9.4
2017-Sep-12 15:30N 39°46' W 075°28'510.8
2017-Sep-12 15:00N 39°41' W 075°31'5 9.8
2017-Sep-12 14:31N 39°37' W 075°35'5 9.5
2017-Sep-12 14:01N 39°33' W 075°33'510.0
2017-Sep-12 13:30N 39°28' W 075°34'510.0
2017-Sep-12 13:00N 39°24' W 075°29'510.2
2017-Sep-12 12:30N 39°20' W 075°25'510.2
2017-Sep-12 12:00N 39°16' W 075°21'2210.8
2017-Sep-12 10:00N 38°57' W 075°07'811.1
2017-Sep-12 09:18N 38°50' W 075°04'3 9.8
2017-Sep-12 09:00N 38°47' W 075°02'4 8.2
2017-Sep-12 08:30N 38°45' W 074°58'4 8.7
2017-Sep-12 08:00N 38°42' W 074°54'5 9.4
2017-Sep-12 07:30N 38°38' W 074°50'5 9.5
2017-Sep-12 07:00N 38°35' W 074°46'5 9.7
2017-Sep-12 06:30N 38°31' W 074°43'510.4
2017-Sep-12 06:01N 38°27' W 074°38'611.3
2017-Sep-12 05:30N 38°26' W 074°31'612.2
2017-Sep-12 05:00N 38°27' W 074°23'612.0
2017-Sep-12 04:30N 38°26' W 074°16'612.5
2017-Sep-12 04:00N 38°26' W 074°08'612.7
2017-Sep-12 03:30N 38°26' W 073°60'3 2.7
2017-Sep-12 02:18N 38°27' W 074°04'2 5.5
2017-Sep-12 02:01N 38°26' W 074°06'612.9
2017-Sep-12 01:30N 38°26' W 073°57'7 5.4
2017-Sep-12 00:11N 38°27' W 074°06'1 7.6
2017-Sep-12 00:01N 38°26' W 074°05'612.8
2017-Sep-11 23:31N 38°26' W 073°57'712.9
2017-Sep-11 22:58N 38°26' W 073°48'612.6
2017-Sep-11 22:30N 38°25' W 073°40'612.5
2017-Sep-11 22:00N 38°25' W 073°32'612.0
2017-Sep-11 21:29N 38°25' W 073°24'612.1
2017-Sep-11 20:57N 38°25' W 073°16'  
Track history (hours):
 
Tides and Currents Weather Stations Pressure Air Temp Water Temp Dewpoint Dewpoint Depression Visibility Wind Speed Wind Dir Waves Ship Positions

Stolt Sneland

Last reported at 2017-Sep-21 06:44 UTC. Time now 2017-Sep-26 18:31 UTC.
Position N 27°37' W 082°41'.

Length 182 m; draft 8.1 m.

Type: Ship (hazmat cat A). MMSI: 319627000.

Date/timePositionNaut miles runAvg speedWind from/ knotsBaromVisibWave heightAir tempDewpointWater temp
2017-Sep-21 06:44N 27°37' W 082°41'311.6
2017-Sep-21 06:29N 27°38' W 082°38'511.1
2017-Sep-21 06:00N 27°42' W 082°34'510.9
2017-Sep-21 05:30N 27°47' W 082°31'510.8
2017-Sep-21 05:00N 27°50' W 082°27'5 9.7
2017-Sep-21 04:30N 27°55' W 082°27'0 0.5
2017-Sep-21 04:00N 27°55' W 082°27'0 0.0
2017-Sep-21 03:29N 27°55' W 082°27'0 0.0
2017-Sep-21 03:00N 27°55' W 082°27'0 0.0
2017-Sep-21 02:30N 27°55' W 082°27'0 0.0
2017-Sep-21 02:00N 27°55' W 082°27'0 0.0
2017-Sep-21 01:30N 27°55' W 082°27'0 0.0
2017-Sep-21 01:00N 27°55' W 082°27'0 0.0
2017-Sep-21 00:30N 27°55' W 082°27'0 0.0
2017-Sep-21 00:00N 27°55' W 082°27'0 0.0
2017-Sep-20 23:29N 27°55' W 082°27'0 0.0
2017-Sep-20 23:00N 27°55' W 082°27'0 0.0
2017-Sep-20 22:29N 27°55' W 082°27'0 0.0
2017-Sep-20 22:00N 27°55' W 082°27'0 0.0
2017-Sep-20 21:29N 27°55' W 082°27'0 0.0
2017-Sep-20 20:59N 27°55' W 082°27'0 0.0
2017-Sep-20 20:30N 27°55' W 082°27'0 0.0
2017-Sep-20 19:59N 27°55' W 082°27'0 0.0
2017-Sep-20 19:30N 27°55' W 082°27'0 0.0
2017-Sep-20 19:00N 27°55' W 082°27'0 0.0
2017-Sep-20 18:29N 27°55' W 082°27'0 0.0
2017-Sep-20 18:00N 27°55' W 082°27'0 0.0
2017-Sep-20 17:29N 27°55' W 082°27'0 0.0
2017-Sep-20 16:59N 27°55' W 082°27'0 0.0
2017-Sep-20 16:29N 27°55' W 082°27'0 0.0
2017-Sep-20 15:59N 27°55' W 082°27'0 0.0
2017-Sep-20 15:29N 27°55' W 082°27'0 0.0
2017-Sep-20 15:00N 27°55' W 082°27'0 0.0
2017-Sep-20 14:00N 27°55' W 082°27'0 0.0
2017-Sep-20 13:26N 27°55' W 082°27'0 0.0
2017-Sep-20 12:59N 27°55' W 082°27'0 0.0
2017-Sep-20 12:29N 27°55' W 082°27'0 0.0
2017-Sep-20 12:00N 27°55' W 082°27'0 0.0
2017-Sep-20 11:30N 27°55' W 082°27'0 0.7
2017-Sep-20 11:00N 27°55' W 082°27'3 6.1
2017-Sep-20 10:31N 27°52' W 082°27'5 9.4
2017-Sep-20 10:01N 27°48' W 082°29'5 9.6
2017-Sep-20 09:30N 27°44' W 082°32'610.0
2017-Sep-20 08:56N 27°39' W 082°36'205 5.0
2017-Sep-18 15:37N 25°33' W 079°35'112.1
2017-Sep-18 15:30N 25°34' W 079°35'612.1
2017-Sep-18 15:00N 25°40' W 079°34'612.0
2017-Sep-18 14:30N 25°46' W 079°34'612.2
2017-Sep-18 14:00N 25°52' W 079°33'612.4
2017-Sep-18 13:30N 25°58' W 079°32'612.5
2017-Sep-18 13:00N 26°05' W 079°31'612.6
2017-Sep-18 12:30N 26°11' W 079°30'612.5
2017-Sep-18 12:00N 26°17' W 079°29'34410.7
2017-Sep-17 03:45N 31°57' W 078°31'2 7.3
2017-Sep-17 03:29N 31°59' W 078°32'133 4.3
2017-Sep-15 20:16N 34°09' W 077°57'411.4
2017-Sep-15 19:52N 34°05' W 077°56'411.6
2017-Sep-15 19:30N 34°00' W 077°56'710.1
2017-Sep-15 18:51N 33°55' W 078°01'310.0
2017-Sep-15 18:30N 33°51' W 078°01'710.9
2017-Sep-15 17:53N 33°45' W 078°04'267 9.2
2017-Sep-14 12:55N 37°07' W 074°29'813.3
2017-Sep-14 12:18N 37°15' W 074°29'813.7
2017-Sep-14 11:41N 37°24' W 074°29'614.3
2017-Sep-14 11:17N 37°29' W 074°29'714.0
2017-Sep-14 10:48N 37°36' W 074°29'413.8
2017-Sep-14 10:31N 37°40' W 074°29'714.0
2017-Sep-14 10:00N 37°47' W 074°29'713.9
2017-Sep-14 09:30N 37°54' W 074°29'713.7
2017-Sep-14 09:00N 38°01' W 074°29'713.3
2017-Sep-14 08:30N 38°07' W 074°32'713.4
2017-Sep-14 08:00N 38°13' W 074°35'713.6
2017-Sep-14 07:30N 38°19' W 074°39'713.3
2017-Sep-14 07:00N 38°25' W 074°43'713.1
2017-Sep-14 06:30N 38°31' W 074°47'612.9
2017-Sep-14 06:00N 38°36' W 074°52'612.6
2017-Sep-14 05:30N 38°41' W 074°57'612.4
2017-Sep-14 05:01N 38°46' W 075°02'510.8
2017-Sep-14 04:31N 38°51' W 075°05'5 9.1
2017-Sep-14 04:01N 38°55' W 075°06'611.4
2017-Sep-14 03:30N 39°01' W 075°09'612.0
2017-Sep-14 03:00N 39°06' W 075°12'612.9
2017-Sep-14 02:30N 39°11' W 075°17'713.8
2017-Sep-14 02:01N 39°17' W 075°22'714.2
2017-Sep-14 01:31N 39°22' W 075°28'713.4
2017-Sep-14 01:01N 39°27' W 075°34'612.8
2017-Sep-14 00:30N 39°34' W 075°33'510.6
2017-Sep-14 00:00N 39°39' W 075°33'611.7
2017-Sep-13 23:30N 39°44' W 075°30'5 9.8
2017-Sep-13 23:01N 39°48' W 075°26'4 8.8
2017-Sep-13 22:31N 39°51' W 075°21'5 9.6
2017-Sep-13 22:01N 39°51' W 075°15'2 3.0
2017-Sep-13 21:29N 39°52' W 075°13'0 0.0
2017-Sep-13 20:59N 39°52' W 075°13'0 0.0
2017-Sep-13 20:29N 39°52' W 075°13'0 0.0
2017-Sep-13 19:59N 39°52' W 075°13'0 0.0
2017-Sep-13 19:29N 39°52' W 075°13'0 0.3
2017-Sep-13 18:59N 39°52' W 075°13'0 0.1
2017-Sep-13 18:29N 39°52' W 075°13'0 0.0
2017-Sep-13 17:59N 39°52' W 075°13'0 0.0
2017-Sep-13 17:29N 39°52' W 075°13'0 0.0
2017-Sep-13 16:59N 39°52' W 075°13'0 0.0
2017-Sep-13 16:29N 39°52' W 075°13'0 0.0
2017-Sep-13 15:59N 39°52' W 075°13'0 0.0
2017-Sep-13 15:29N 39°52' W 075°13'0 0.0
2017-Sep-13 14:59N 39°52' W 075°13'0 0.1
2017-Sep-13 14:29N 39°52' W 075°13'1 1.1
2017-Sep-13 14:00N 39°52' W 075°13'3 5.8
2017-Sep-13 13:30N 39°53' W 075°09'3 6.5
2017-Sep-13 13:01N 39°56' W 075°08'3 6.5
2017-Sep-13 12:31N 39°59' W 075°06'0 0.2
2017-Sep-13 11:56N 39°59' W 075°06'0 0.0
2017-Sep-13 11:26N 39°59' W 075°06'0 0.0
2017-Sep-13 10:59N 39°59' W 075°06'0 0.0
2017-Sep-13 10:29N 39°59' W 075°06'0 0.0
2017-Sep-13 09:59N 39°59' W 075°06'0 0.0
2017-Sep-13 09:29N 39°59' W 075°06'0 0.0
2017-Sep-13 08:56N 39°59' W 075°06'0 0.0
2017-Sep-13 08:26N 39°59' W 075°06'0 0.0
2017-Sep-13 07:59N 39°59' W 075°06'0 0.0
2017-Sep-13 07:26N 39°59' W 075°06'0 0.0
2017-Sep-13 06:59N 39°59' W 075°06'0 0.0
2017-Sep-13 06:28N 39°59' W 075°06'0 0.0
2017-Sep-13 05:56N 39°59' W 075°06'0 0.0
2017-Sep-13 05:26N 39°59' W 075°06'0 0.0
2017-Sep-13 04:56N 39°59' W 075°06'0 0.0
2017-Sep-13 04:29N 39°59' W 075°06'0 0.0
2017-Sep-13 03:59N 39°59' W 075°06'0 0.0
2017-Sep-13 03:26N 39°59' W 075°06'0 0.0
2017-Sep-13 02:59N 39°59' W 075°06'0 0.0
2017-Sep-13 02:29N 39°59' W 075°06'0 0.0
2017-Sep-13 01:59N 39°59' W 075°06'0 0.0
2017-Sep-13 01:29N 39°59' W 075°06'0 0.0
2017-Sep-13 00:59N 39°59' W 075°06'0 0.0
2017-Sep-13 00:29N 39°59' W 075°06'0 0.0
2017-Sep-12 23:56N 39°59' W 075°06'0 0.0
2017-Sep-12 23:29N 39°59' W 075°06'0 0.0
2017-Sep-12 22:59N 39°59' W 075°06'0 0.0
2017-Sep-12 22:29N 39°59' W 075°06'0 0.0
2017-Sep-12 21:56N 39°59' W 075°06'0 0.0
2017-Sep-12 21:29N 39°59' W 075°06'0 0.0
2017-Sep-12 20:59N 39°59' W 075°06'0 0.0
2017-Sep-12 20:26N 39°59' W 075°06'0 0.0
2017-Sep-12 19:59N 39°59' W 075°06'0 0.0
2017-Sep-12 19:29N 39°59' W 075°06'0 0.0
2017-Sep-12 18:59N 39°59' W 075°06'0 0.3
2017-Sep-12 18:30N 39°59' W 075°05'2 4.6
2017-Sep-12 18:00N 39°57' W 075°08'3 6.4
2017-Sep-12 17:31N 39°54' W 075°08'4 7.4
2017-Sep-12 17:01N 39°53' W 075°12'5 9.0
2017-Sep-12 16:31N 39°51' W 075°18'5 9.9
2017-Sep-12 16:01N 39°49' W 075°24'5 9.4
2017-Sep-12 15:30N 39°46' W 075°28'510.8
2017-Sep-12 15:00N 39°41' W 075°31'5 9.8
2017-Sep-12 14:31N 39°37' W 075°35'5 9.5
2017-Sep-12 14:01N 39°33' W 075°33'510.0
2017-Sep-12 13:30N 39°28' W 075°34'510.0
2017-Sep-12 13:00N 39°24' W 075°29'510.2
2017-Sep-12 12:30N 39°20' W 075°25'510.2
2017-Sep-12 12:00N 39°16' W 075°21'2210.8
2017-Sep-12 10:00N 38°57' W 075°07'811.1
2017-Sep-12 09:18N 38°50' W 075°04'3 9.8
2017-Sep-12 09:00N 38°47' W 075°02'4 8.2
2017-Sep-12 08:30N 38°45' W 074°58'4 8.7
2017-Sep-12 08:00N 38°42' W 074°54'5 9.4
2017-Sep-12 07:30N 38°38' W 074°50'5 9.5
2017-Sep-12 07:00N 38°35' W 074°46'5 9.7
2017-Sep-12 06:30N 38°31' W 074°43'510.4
2017-Sep-12 06:01N 38°27' W 074°38'611.3
2017-Sep-12 05:30N 38°26' W 074°31'612.2
2017-Sep-12 05:00N 38°27' W 074°23'612.0
2017-Sep-12 04:30N 38°26' W 074°16'612.5
2017-Sep-12 04:00N 38°26' W 074°08'612.7
2017-Sep-12 03:30N 38°26' W 073°60'3 2.7
2017-Sep-12 02:18N 38°27' W 074°04'2 5.5
2017-Sep-12 02:01N 38°26' W 074°06'612.9
2017-Sep-12 01:30N 38°26' W 073°57'7 5.4
2017-Sep-12 00:11N 38°27' W 074°06'1 7.6
2017-Sep-12 00:01N 38°26' W 074°05'612.8
2017-Sep-11 23:31N 38°26' W 073°57'712.9
2017-Sep-11 22:58N 38°26' W 073°48'612.6
2017-Sep-11 22:30N 38°25' W 073°40'612.5
2017-Sep-11 22:00N 38°25' W 073°32'612.0
2017-Sep-11 21:29N 38°25' W 073°24'612.1
2017-Sep-11 20:57N 38°25' W 073°16'  

Dump ship's entire track history